sensor_id;sensor_type;location;lat;lon;timestamp;pressure;altitude;pressure_sealevel;temperature;humidity
21096;BME280;10706;49.036;12.112;2024-03-02T00:01:15;96708.13;;;8.60;80.93
21096;BME280;10706;49.036;12.112;2024-03-02T00:03:42;96708.75;;;8.67;81.39
21096;BME280;10706;49.036;12.112;2024-03-02T00:06:09;96711.03;;;8.59;81.53
21096;BME280;10706;49.036;12.112;2024-03-02T00:08:35;96701.34;;;8.74;81.12
21096;BME280;10706;49.036;12.112;2024-03-02T00:11:01;96700.81;;;8.50;81.57
21096;BME280;10706;49.036;12.112;2024-03-02T00:13:31;96704.53;;;8.71;80.74
21096;BME280;10706;49.036;12.112;2024-03-02T00:15:58;96703.16;;;8.69;81.74
21096;BME280;10706;49.036;12.112;2024-03-02T00:18:35;96704.16;;;8.63;81.41
21096;BME280;10706;49.036;12.112;2024-03-02T00:21:01;96705.03;;;8.29;83.11
21096;BME280;10706;49.036;12.112;2024-03-02T00:23:31;96713.19;;;8.23;83.29
21096;BME280;10706;49.036;12.112;2024-03-02T00:25:57;96711.81;;;8.59;82.74
21096;BME280;10706;49.036;12.112;2024-03-02T00:28:35;96699.19;;;8.71;81.16
21096;BME280;10706;49.036;12.112;2024-03-02T00:33:36;96709.91;;;8.54;82.42
21096;BME280;10706;49.036;12.112;2024-03-02T00:36:04;96705.50;;;8.43;82.90
21096;BME280;10706;49.036;12.112;2024-03-02T00:38:31;96708.59;;;8.57;81.56
21096;BME280;10706;49.036;12.112;2024-03-02T00:41:05;96711.28;;;8.40;82.40
21096;BME280;10706;49.036;12.112;2024-03-02T00:44:07;96709.03;;;8.49;81.86
21096;BME280;10706;49.036;12.112;2024-03-02T00:46:38;96703.78;;;8.54;82.05
21096;BME280;10706;49.036;12.112;2024-03-02T00:51:33;96705.94;;;8.57;81.02
21096;BME280;10706;49.036;12.112;2024-03-02T00:54:07;96697.69;;;8.36;82.54
21096;BME280;10706;49.036;12.112;2024-03-02T00:56:33;96708.97;;;8.44;83.31
21096;BME280;10706;49.036;12.112;2024-03-02T00:59:00;96706.00;;;8.62;82.71
21096;BME280;10706;49.036;12.112;2024-03-02T01:01:27;96703.53;;;8.55;82.32
21096;BME280;10706;49.036;12.112;2024-03-02T01:03:53;96704.69;;;8.43;81.92
21096;BME280;10706;49.036;12.112;2024-03-02T01:06:19;96700.19;;;8.43;83.41
21096;BME280;10706;49.036;12.112;2024-03-02T01:08:45;96697.53;;;8.65;81.86
21096;BME280;10706;49.036;12.112;2024-03-02T01:11:13;96699.25;;;8.15;83.60
21096;BME280;10706;49.036;12.112;2024-03-02T01:13:38;96697.59;;;8.31;82.87
21096;BME280;10706;49.036;12.112;2024-03-02T01:16:05;96694.97;;;8.53;82.24
21096;BME280;10706;49.036;12.112;2024-03-02T01:18:31;96693.59;;;8.29;83.00
21096;BME280;10706;49.036;12.112;2024-03-02T01:20:57;96689.13;;;8.34;84.43
21096;BME280;10706;49.036;12.112;2024-03-02T01:23:23;96694.44;;;8.51;81.97
21096;BME280;10706;49.036;12.112;2024-03-02T01:25:50;96692.41;;;8.20;83.22
21096;BME280;10706;49.036;12.112;2024-03-02T01:28:17;96694.38;;;8.07;84.73
21096;BME280;10706;49.036;12.112;2024-03-02T01:30:44;96694.47;;;7.95;84.39
21096;BME280;10706;49.036;12.112;2024-03-02T01:33:10;96700.00;;;8.33;83.79
21096;BME280;10706;49.036;12.112;2024-03-02T01:35:37;96694.69;;;8.11;85.07
21096;BME280;10706;49.036;12.112;2024-03-02T01:38:03;96694.50;;;8.56;82.64
21096;BME280;10706;49.036;12.112;2024-03-02T01:40:31;96695.53;;;8.55;83.30
21096;BME280;10706;49.036;12.112;2024-03-02T01:42:58;96688.28;;;8.29;84.17
21096;BME280;10706;49.036;12.112;2024-03-02T01:45:24;96691.41;;;8.26;83.52
21096;BME280;10706;49.036;12.112;2024-03-02T01:47:51;96688.63;;;8.15;84.08
21096;BME280;10706;49.036;12.112;2024-03-02T01:50:42;96693.91;;;8.32;83.64
21096;BME280;10706;49.036;12.112;2024-03-02T01:53:09;96685.13;;;8.32;84.50
21096;BME280;10706;49.036;12.112;2024-03-02T01:55:55;96688.69;;;8.21;84.21
21096;BME280;10706;49.036;12.112;2024-03-02T01:58:21;96684.88;;;8.33;83.46
21096;BME280;10706;49.036;12.112;2024-03-02T02:00:47;96687.94;;;8.25;84.53
21096;BME280;10706;49.036;12.112;2024-03-02T02:03:13;96684.28;;;8.48;83.62
21096;BME280;10706;49.036;12.112;2024-03-02T02:05:41;96686.13;;;8.48;83.46
21096;BME280;10706;49.036;12.112;2024-03-02T02:08:08;96688.03;;;8.30;84.51
21096;BME280;10706;49.036;12.112;2024-03-02T02:10:34;96682.69;;;8.47;82.94
21096;BME280;10706;49.036;12.112;2024-03-02T02:13:00;96686.81;;;7.99;85.02
21096;BME280;10706;49.036;12.112;2024-03-02T02:15:28;96684.53;;;8.08;84.79
21096;BME280;10706;49.036;12.112;2024-03-02T02:17:55;96679.03;;;8.14;84.29
21096;BME280;10706;49.036;12.112;2024-03-02T02:20:21;96681.72;;;8.36;82.97
21096;BME280;10706;49.036;12.112;2024-03-02T02:23:13;96688.50;;;8.66;83.64
21096;BME280;10706;49.036;12.112;2024-03-02T02:25:39;96682.78;;;8.57;82.25
21096;BME280;10706;49.036;12.112;2024-03-02T02:28:06;96676.97;;;8.61;82.61
21096;BME280;10706;49.036;12.112;2024-03-02T02:30:32;96679.72;;;8.66;82.24
21096;BME280;10706;49.036;12.112;2024-03-02T02:32:59;96679.25;;;8.74;82.99
21096;BME280;10706;49.036;12.112;2024-03-02T02:35:25;96683.53;;;8.53;83.71
21096;BME280;10706;49.036;12.112;2024-03-02T02:37:51;96679.72;;;8.44;83.92
21096;BME280;10706;49.036;12.112;2024-03-02T02:40:18;96678.69;;;8.28;84.92
21096;BME280;10706;49.036;12.112;2024-03-02T02:42:47;96670.53;;;8.34;83.60
21096;BME280;10706;49.036;12.112;2024-03-02T02:45:13;96675.53;;;8.31;84.83
21096;BME280;10706;49.036;12.112;2024-03-02T02:47:43;96674.25;;;8.55;82.68
21096;BME280;10706;49.036;12.112;2024-03-02T02:50:10;96675.44;;;8.65;83.56
21096;BME280;10706;49.036;12.112;2024-03-02T02:52:39;96676.28;;;8.48;82.86
21096;BME280;10706;49.036;12.112;2024-03-02T02:55:08;96672.91;;;8.53;83.94
21096;BME280;10706;49.036;12.112;2024-03-02T02:57:35;96670.00;;;8.54;82.90
21096;BME280;10706;49.036;12.112;2024-03-02T03:00:14;96676.44;;;8.59;83.05
21096;BME280;10706;49.036;12.112;2024-03-02T03:02:42;96666.41;;;8.66;82.65
21096;BME280;10706;49.036;12.112;2024-03-02T03:05:13;96663.59;;;8.78;82.99
21096;BME280;10706;49.036;12.112;2024-03-02T03:07:40;96672.84;;;8.70;82.19
21096;BME280;10706;49.036;12.112;2024-03-02T03:10:07;96673.38;;;8.72;81.81
21096;BME280;10706;49.036;12.112;2024-03-02T03:12:34;96675.94;;;8.62;82.50
21096;BME280;10706;49.036;12.112;2024-03-02T03:15:00;96674.50;;;8.32;83.62
21096;BME280;10706;49.036;12.112;2024-03-02T03:17:26;96677.06;;;8.44;84.43
21096;BME280;10706;49.036;12.112;2024-03-02T03:19:53;96674.06;;;8.40;83.07
21096;BME280;10706;49.036;12.112;2024-03-02T03:22:19;96677.44;;;8.52;82.92
21096;BME280;10706;49.036;12.112;2024-03-02T03:24:45;96671.28;;;8.30;84.10
21096;BME280;10706;49.036;12.112;2024-03-02T03:27:11;96676.25;;;8.65;83.43
21096;BME280;10706;49.036;12.112;2024-03-02T03:29:37;96670.78;;;8.77;83.10
21096;BME280;10706;49.036;12.112;2024-03-02T03:32:04;96672.03;;;8.69;83.76
21096;BME280;10706;49.036;12.112;2024-03-02T03:34:33;96671.97;;;8.42;83.11
21096;BME280;10706;49.036;12.112;2024-03-02T03:36:59;96673.22;;;8.56;84.56
21096;BME280;10706;49.036;12.112;2024-03-02T03:39:25;96670.50;;;8.51;82.91
21096;BME280;10706;49.036;12.112;2024-03-02T03:41:51;96670.72;;;8.50;84.24
21096;BME280;10706;49.036;12.112;2024-03-02T03:44:17;96665.41;;;8.72;83.71
21096;BME280;10706;49.036;12.112;2024-03-02T03:46:43;96673.09;;;8.29;83.79
21096;BME280;10706;49.036;12.112;2024-03-02T03:49:09;96672.25;;;8.24;84.53
21096;BME280;10706;49.036;12.112;2024-03-02T03:51:35;96674.53;;;8.54;83.07
21096;BME280;10706;49.036;12.112;2024-03-02T03:54:02;96674.94;;;8.68;82.24
21096;BME280;10706;49.036;12.112;2024-03-02T03:56:27;96673.91;;;8.08;84.97
21096;BME280;10706;49.036;12.112;2024-03-02T03:58:53;96675.03;;;8.34;84.90
21096;BME280;10706;49.036;12.112;2024-03-02T04:01:20;96681.94;;;8.52;84.42
21096;BME280;10706;49.036;12.112;2024-03-02T04:03:48;96673.91;;;8.08;85.71
21096;BME280;10706;49.036;12.112;2024-03-02T04:06:14;96679.91;;;8.20;84.65
21096;BME280;10706;49.036;12.112;2024-03-02T04:08:41;96677.88;;;8.27;84.73
21096;BME280;10706;49.036;12.112;2024-03-02T04:11:07;96677.81;;;7.83;87.48
21096;BME280;10706;49.036;12.112;2024-03-02T04:13:33;96685.59;;;8.29;85.19
21096;BME280;10706;49.036;12.112;2024-03-02T04:15:59;96682.06;;;8.62;84.59
21096;BME280;10706;49.036;12.112;2024-03-02T04:18:25;96686.28;;;8.58;83.51
21096;BME280;10706;49.036;12.112;2024-03-02T04:20:51;96685.66;;;8.73;83.27
21096;BME280;10706;49.036;12.112;2024-03-02T04:23:17;96691.56;;;8.80;82.45
21096;BME280;10706;49.036;12.112;2024-03-02T04:25:42;96689.03;;;8.90;81.50
21096;BME280;10706;49.036;12.112;2024-03-02T04:28:08;96688.00;;;8.47;83.16
21096;BME280;10706;49.036;12.112;2024-03-02T04:30:34;96692.31;;;8.53;84.41
21096;BME280;10706;49.036;12.112;2024-03-02T04:33:00;96696.03;;;8.74;82.24
21096;BME280;10706;49.036;12.112;2024-03-02T04:35:27;96692.78;;;8.67;83.87
21096;BME280;10706;49.036;12.112;2024-03-02T04:37:54;96693.44;;;8.80;82.81
21096;BME280;10706;49.036;12.112;2024-03-02T04:40:20;96694.91;;;8.92;82.66
21096;BME280;10706;49.036;12.112;2024-03-02T04:42:46;96695.44;;;8.94;81.24
21096;BME280;10706;49.036;12.112;2024-03-02T04:45:12;96703.91;;;8.86;82.81
21096;BME280;10706;49.036;12.112;2024-03-02T04:47:38;96702.13;;;8.31;84.15
21096;BME280;10706;49.036;12.112;2024-03-02T04:50:04;96701.56;;;8.68;83.23
21096;BME280;10706;49.036;12.112;2024-03-02T04:52:31;96705.63;;;8.75;83.06
21096;BME280;10706;49.036;12.112;2024-03-02T04:54:57;96708.75;;;8.94;82.17
21096;BME280;10706;49.036;12.112;2024-03-02T04:57:41;96714.69;;;8.52;84.54
21096;BME280;10706;49.036;12.112;2024-03-02T05:00:08;96712.22;;;8.95;81.97
21096;BME280;10706;49.036;12.112;2024-03-02T05:02:34;96712.34;;;9.05;81.86
21096;BME280;10706;49.036;12.112;2024-03-02T05:05:00;96708.22;;;8.92;82.21
21096;BME280;10706;49.036;12.112;2024-03-02T05:07:26;96709.16;;;9.08;81.21
21096;BME280;10706;49.036;12.112;2024-03-02T05:09:52;96711.47;;;8.50;83.63
21096;BME280;10706;49.036;12.112;2024-03-02T05:12:18;96714.00;;;8.62;83.61
21096;BME280;10706;49.036;12.112;2024-03-02T05:15:02;96718.41;;;9.01;81.37
21096;BME280;10706;49.036;12.112;2024-03-02T05:17:29;96717.50;;;9.17;81.83
21096;BME280;10706;49.036;12.112;2024-03-02T05:19:54;96720.66;;;9.14;82.24
21096;BME280;10706;49.036;12.112;2024-03-02T05:22:20;96717.50;;;9.17;81.88
21096;BME280;10706;49.036;12.112;2024-03-02T05:24:46;96721.19;;;9.11;81.33
21096;BME280;10706;49.036;12.112;2024-03-02T05:27:11;96725.50;;;9.17;80.86
21096;BME280;10706;49.036;12.112;2024-03-02T05:29:37;96723.16;;;9.21;81.25
21096;BME280;10706;49.036;12.112;2024-03-02T05:32:03;96721.81;;;9.23;81.53
21096;BME280;10706;49.036;12.112;2024-03-02T05:34:29;96726.13;;;9.24;81.02
21096;BME280;10706;49.036;12.112;2024-03-02T05:36:56;96727.81;;;9.36;80.87
21096;BME280;10706;49.036;12.112;2024-03-02T05:39:23;96724.56;;;9.28;81.71
21096;BME280;10706;49.036;12.112;2024-03-02T05:41:49;96726.00;;;9.14;81.66
21096;BME280;10706;49.036;12.112;2024-03-02T05:44:15;96726.47;;;9.33;80.33
21096;BME280;10706;49.036;12.112;2024-03-02T05:46:41;96728.97;;;9.18;80.31
21096;BME280;10706;49.036;12.112;2024-03-02T05:49:08;96734.97;;;9.30;80.76
21096;BME280;10706;49.036;12.112;2024-03-02T05:51:35;96729.25;;;9.16;80.71
21096;BME280;10706;49.036;12.112;2024-03-02T05:54:01;96741.38;;;9.07;80.84
21096;BME280;10706;49.036;12.112;2024-03-02T05:56:27;96736.06;;;9.34;80.41
21096;BME280;10706;49.036;12.112;2024-03-02T05:58:53;96738.53;;;9.41;79.87
21096;BME280;10706;49.036;12.112;2024-03-02T06:01:43;96737.03;;;9.50;79.89
21096;BME280;10706;49.036;12.112;2024-03-02T06:04:10;96736.19;;;9.49;80.44
21096;BME280;10706;49.036;12.112;2024-03-02T06:06:39;96739.03;;;9.38;81.17
21096;BME280;10706;49.036;12.112;2024-03-02T06:09:06;96737.97;;;9.39;80.96
21096;BME280;10706;49.036;12.112;2024-03-02T06:11:39;96731.94;;;9.21;80.49
21096;BME280;10706;49.036;12.112;2024-03-02T06:14:06;96737.81;;;9.50;80.23
21096;BME280;10706;49.036;12.112;2024-03-02T06:16:33;96744.97;;;9.45;79.63
21096;BME280;10706;49.036;12.112;2024-03-02T06:19:00;96757.78;;;9.48;79.07
21096;BME280;10706;49.036;12.112;2024-03-02T06:21:26;96750.66;;;9.53;79.82
21096;BME280;10706;49.036;12.112;2024-03-02T06:23:52;96750.78;;;9.14;81.06
21096;BME280;10706;49.036;12.112;2024-03-02T06:26:18;96745.00;;;9.23;80.53
21096;BME280;10706;49.036;12.112;2024-03-02T06:28:45;96750.69;;;8.82;82.91
21096;BME280;10706;49.036;12.112;2024-03-02T06:31:11;96745.84;;;9.28;80.76
21096;BME280;10706;49.036;12.112;2024-03-02T06:33:37;96752.34;;;9.10;81.55
21096;BME280;10706;49.036;12.112;2024-03-02T06:36:04;96745.72;;;9.13;82.04
21096;BME280;10706;49.036;12.112;2024-03-02T06:38:30;96746.97;;;9.05;81.82
21096;BME280;10706;49.036;12.112;2024-03-02T06:40:59;96747.81;;;9.11;82.18
21096;BME280;10706;49.036;12.112;2024-03-02T06:43:25;96748.44;;;9.18;81.93
21096;BME280;10706;49.036;12.112;2024-03-02T06:45:52;96745.66;;;9.08;81.23
21096;BME280;10706;49.036;12.112;2024-03-02T06:48:19;96747.09;;;8.93;82.32
21096;BME280;10706;49.036;12.112;2024-03-02T06:50:49;96751.09;;;9.18;82.28
21096;BME280;10706;49.036;12.112;2024-03-02T06:53:16;96761.78;;;9.23;81.04
21096;BME280;10706;49.036;12.112;2024-03-02T06:55:46;96756.94;;;8.93;83.08
21096;BME280;10706;49.036;12.112;2024-03-02T06:58:13;96761.78;;;9.23;82.51
21096;BME280;10706;49.036;12.112;2024-03-02T07:00:43;96753.25;;;9.21;81.53
21096;BME280;10706;49.036;12.112;2024-03-02T07:03:13;96757.53;;;9.22;82.27
21096;BME280;10706;49.036;12.112;2024-03-02T07:05:39;96756.22;;;9.25;81.33
21096;BME280;10706;49.036;12.112;2024-03-02T07:08:05;96755.56;;;9.40;81.22
21096;BME280;10706;49.036;12.112;2024-03-02T07:10:31;96745.06;;;9.28;82.51
21096;BME280;10706;49.036;12.112;2024-03-02T07:12:57;96762.38;;;9.30;80.91
21096;BME280;10706;49.036;12.112;2024-03-02T07:15:23;96753.66;;;9.35;81.02
21096;BME280;10706;49.036;12.112;2024-03-02T07:17:52;96761.28;;;9.26;82.13
21096;BME280;10706;49.036;12.112;2024-03-02T07:20:18;96766.53;;;9.43;81.50
21096;BME280;10706;49.036;12.112;2024-03-02T07:22:44;96765.09;;;9.63;79.54
21096;BME280;10706;49.036;12.112;2024-03-02T07:25:11;96769.44;;;9.14;83.01
21096;BME280;10706;49.036;12.112;2024-03-02T07:27:37;96770.31;;;8.98;83.06
21096;BME280;10706;49.036;12.112;2024-03-02T07:30:03;96775.16;;;9.01;83.84
21096;BME280;10706;49.036;12.112;2024-03-02T07:32:29;96774.53;;;9.21;81.46
21096;BME280;10706;49.036;12.112;2024-03-02T07:34:55;96775.69;;;9.25;82.35
21096;BME280;10706;49.036;12.112;2024-03-02T07:37:22;96778.91;;;9.27;82.56
21096;BME280;10706;49.036;12.112;2024-03-02T07:39:49;96782.81;;;9.20;82.90
21096;BME280;10706;49.036;12.112;2024-03-02T07:42:15;96783.72;;;9.08;82.29
21096;BME280;10706;49.036;12.112;2024-03-02T07:44:43;96788.25;;;9.08;82.65
21096;BME280;10706;49.036;12.112;2024-03-02T07:47:10;96791.69;;;9.30;81.68
21096;BME280;10706;49.036;12.112;2024-03-02T07:49:36;96797.53;;;9.27;81.79
21096;BME280;10706;49.036;12.112;2024-03-02T07:52:02;96796.13;;;8.98;83.52
21096;BME280;10706;49.036;12.112;2024-03-02T07:54:28;96798.03;;;8.58;85.07
21096;BME280;10706;49.036;12.112;2024-03-02T07:56:54;96801.59;;;8.69;83.44
21096;BME280;10706;49.036;12.112;2024-03-02T07:59:20;96799.06;;;9.23;81.08
21096;BME280;10706;49.036;12.112;2024-03-02T08:01:48;96803.34;;;9.02;82.26
21096;BME280;10706;49.036;12.112;2024-03-02T08:04:15;96805.16;;;9.19;81.18
21096;BME280;10706;49.036;12.112;2024-03-02T08:06:40;96807.56;;;8.76;83.34
21096;BME280;10706;49.036;12.112;2024-03-02T08:09:06;96815.97;;;9.34;80.98
21096;BME280;10706;49.036;12.112;2024-03-02T08:11:36;96816.78;;;9.34;81.36
21096;BME280;10706;49.036;12.112;2024-03-02T08:14:03;96821.66;;;8.93;82.25
21096;BME280;10706;49.036;12.112;2024-03-02T08:16:29;96821.81;;;9.58;80.73
21096;BME280;10706;49.036;12.112;2024-03-02T08:18:55;96821.75;;;9.53;81.21
21096;BME280;10706;49.036;12.112;2024-03-02T08:21:24;96821.78;;;9.80;79.46
21096;BME280;10706;49.036;12.112;2024-03-02T08:23:50;96828.31;;;9.67;80.40
21096;BME280;10706;49.036;12.112;2024-03-02T08:26:17;96818.47;;;10.00;79.48
21096;BME280;10706;49.036;12.112;2024-03-02T08:28:43;96817.03;;;10.20;77.81
21096;BME280;10706;49.036;12.112;2024-03-02T08:31:09;96822.66;;;10.23;78.65
21096;BME280;10706;49.036;12.112;2024-03-02T08:33:35;96821.84;;;9.85;79.41
21096;BME280;10706;49.036;12.112;2024-03-02T08:36:02;96821.66;;;9.97;78.02
21096;BME280;10706;49.036;12.112;2024-03-02T08:38:28;96819.41;;;9.84;78.98
21096;BME280;10706;49.036;12.112;2024-03-02T08:40:55;96823.41;;;10.14;77.92
21096;BME280;10706;49.036;12.112;2024-03-02T08:43:21;96828.94;;;9.80;79.37
21096;BME280;10706;49.036;12.112;2024-03-02T08:45:48;96827.84;;;9.76;79.36
21096;BME280;10706;49.036;12.112;2024-03-02T08:48:14;96825.53;;;9.84;79.38
21096;BME280;10706;49.036;12.112;2024-03-02T08:50:40;96824.75;;;9.84;79.00
21096;BME280;10706;49.036;12.112;2024-03-02T08:53:06;96828.31;;;9.67;78.80
21096;BME280;10706;49.036;12.112;2024-03-02T08:55:32;96828.44;;;10.10;77.89
21096;BME280;10706;49.036;12.112;2024-03-02T08:57:59;96837.34;;;9.93;78.27
21096;BME280;10706;49.036;12.112;2024-03-02T09:00:26;96827.75;;;9.92;78.79
21096;BME280;10706;49.036;12.112;2024-03-02T09:02:51;96833.13;;;9.98;78.15
21096;BME280;10706;49.036;12.112;2024-03-02T09:05:18;96835.22;;;10.28;77.25
21096;BME280;10706;49.036;12.112;2024-03-02T09:07:43;96839.16;;;10.47;77.33
21096;BME280;10706;49.036;12.112;2024-03-02T09:10:09;96833.38;;;10.66;76.53
21096;BME280;10706;49.036;12.112;2024-03-02T09:12:35;96832.44;;;10.87;76.15
21096;BME280;10706;49.036;12.112;2024-03-02T09:15:03;96838.63;;;10.50;75.50
21096;BME280;10706;49.036;12.112;2024-03-02T09:17:29;96827.28;;;10.70;75.36
21096;BME280;10706;49.036;12.112;2024-03-02T09:19:55;96834.28;;;10.82;74.60
21096;BME280;10706;49.036;12.112;2024-03-02T09:22:21;96840.38;;;10.72;75.59
21096;BME280;10706;49.036;12.112;2024-03-02T09:24:49;96839.66;;;10.92;75.43
21096;BME280;10706;49.036;12.112;2024-03-02T09:27:15;96833.53;;;10.92;75.09
21096;BME280;10706;49.036;12.112;2024-03-02T09:29:41;96835.63;;;10.84;75.39
21096;BME280;10706;49.036;12.112;2024-03-02T09:32:08;96844.75;;;10.94;74.71
21096;BME280;10706;49.036;12.112;2024-03-02T09:34:37;96838.00;;;10.81;74.66
21096;BME280;10706;49.036;12.112;2024-03-02T09:37:03;96839.63;;;10.82;75.38
21096;BME280;10706;49.036;12.112;2024-03-02T09:39:30;96839.06;;;11.33;73.72
21096;BME280;10706;49.036;12.112;2024-03-02T09:41:57;96844.13;;;11.29;73.61
21096;BME280;10706;49.036;12.112;2024-03-02T09:44:23;96839.41;;;11.57;72.33
21096;BME280;10706;49.036;12.112;2024-03-02T09:46:51;96831.13;;;11.68;71.43
21096;BME280;10706;49.036;12.112;2024-03-02T09:49:17;96836.69;;;11.52;72.63
21096;BME280;10706;49.036;12.112;2024-03-02T09:51:49;96836.19;;;11.55;72.51
21096;BME280;10706;49.036;12.112;2024-03-02T09:54:16;96826.28;;;11.45;73.04
21096;BME280;10706;49.036;12.112;2024-03-02T09:56:42;96824.72;;;11.70;72.01
21096;BME280;10706;49.036;12.112;2024-03-02T09:59:08;96833.22;;;11.51;72.59
21096;BME280;10706;49.036;12.112;2024-03-02T10:01:59;96836.44;;;11.63;71.06
21096;BME280;10706;49.036;12.112;2024-03-02T10:04:31;96824.78;;;12.00;70.71
21096;BME280;10706;49.036;12.112;2024-03-02T10:09:48;96826.13;;;12.08;70.62
21096;BME280;10706;49.036;12.112;2024-03-02T10:12:42;96823.72;;;11.96;69.23
21096;BME280;10706;49.036;12.112;2024-03-02T10:18:04;96825.25;;;11.82;70.99
21096;BME280;10706;49.036;12.112;2024-03-02T10:20:40;96822.13;;;12.05;70.28
21096;BME280;10706;49.036;12.112;2024-03-02T10:23:17;96818.34;;;12.42;69.12
21096;BME280;10706;49.036;12.112;2024-03-02T10:26:18;96815.09;;;11.89;71.27
21096;BME280;10706;49.036;12.112;2024-03-02T10:28:48;96803.63;;;11.99;70.82
21096;BME280;10706;49.036;12.112;2024-03-02T10:31:45;96812.47;;;12.25;70.50
21096;BME280;10706;49.036;12.112;2024-03-02T10:34:14;96810.03;;;11.87;69.40
21096;BME280;10706;49.036;12.112;2024-03-02T10:36:43;96799.53;;;11.40;70.38
21096;BME280;10706;49.036;12.112;2024-03-02T10:39:26;96808.16;;;11.83;68.95
21096;BME280;10706;49.036;12.112;2024-03-02T10:42:07;96809.75;;;11.84;69.07
21096;BME280;10706;49.036;12.112;2024-03-02T10:44:35;96795.84;;;12.49;67.23
21096;BME280;10706;49.036;12.112;2024-03-02T10:47:05;96792.41;;;12.02;67.28
21096;BME280;10706;49.036;12.112;2024-03-02T10:49:39;96799.59;;;12.42;65.61
21096;BME280;10706;49.036;12.112;2024-03-02T10:52:16;96790.78;;;12.32;65.82
21096;BME280;10706;49.036;12.112;2024-03-02T10:54:46;96794.03;;;11.98;66.38
21096;BME280;10706;49.036;12.112;2024-03-02T10:57:17;96783.53;;;11.71;67.89
21096;BME280;10706;49.036;12.112;2024-03-02T11:00:07;96787.81;;;11.87;68.20
21096;BME280;10706;49.036;12.112;2024-03-02T11:02:51;96787.03;;;12.12;66.17
21096;BME280;10706;49.036;12.112;2024-03-02T11:05:40;96776.06;;;12.39;66.84
21096;BME280;10706;49.036;12.112;2024-03-02T11:08:18;96778.78;;;13.10;64.08
21096;BME280;10706;49.036;12.112;2024-03-02T11:10:52;96778.44;;;12.51;65.36
21096;BME280;10706;49.036;12.112;2024-03-02T11:13:36;96770.78;;;13.05;64.10
21096;BME280;10706;49.036;12.112;2024-03-02T11:16:14;96772.75;;;12.78;64.91
21096;BME280;10706;49.036;12.112;2024-03-02T11:18:44;96760.41;;;12.88;65.00
21096;BME280;10706;49.036;12.112;2024-03-02T11:21:11;96759.22;;;13.04;64.51
21096;BME280;10706;49.036;12.112;2024-03-02T11:23:50;96760.25;;;12.48;64.80
21096;BME280;10706;49.036;12.112;2024-03-02T11:26:22;96752.44;;;12.67;64.45
21096;BME280;10706;49.036;12.112;2024-03-02T11:28:50;96751.78;;;12.96;63.86
21096;BME280;10706;49.036;12.112;2024-03-02T11:31:16;96750.47;;;12.93;64.28
21096;BME280;10706;49.036;12.112;2024-03-02T11:51:01;96718.72;;;13.16;62.31
21096;BME280;10706;49.036;12.112;2024-03-02T11:53:28;96718.84;;;12.95;63.83
21096;BME280;10706;49.036;12.112;2024-03-02T11:55:58;96719.53;;;13.16;62.48
21096;BME280;10706;49.036;12.112;2024-03-02T11:58:24;96720.16;;;12.93;63.00
21096;BME280;10706;49.036;12.112;2024-03-02T12:00:53;96709.84;;;13.20;62.17
21096;BME280;10706;49.036;12.112;2024-03-02T12:03:25;96704.06;;;13.03;62.14
21096;BME280;10706;49.036;12.112;2024-03-02T12:05:53;96709.28;;;13.23;62.85
21096;BME280;10706;49.036;12.112;2024-03-02T12:08:19;96710.97;;;13.59;61.31
21096;BME280;10706;49.036;12.112;2024-03-02T12:11:00;96706.22;;;13.46;60.65
21096;BME280;10706;49.036;12.112;2024-03-02T12:13:27;96708.94;;;12.86;62.83
21096;BME280;10706;49.036;12.112;2024-03-02T12:15:54;96707.66;;;13.28;61.96
21096;BME280;10706;49.036;12.112;2024-03-02T12:18:24;96698.63;;;13.58;61.04
21096;BME280;10706;49.036;12.112;2024-03-02T12:20:50;96701.78;;;13.65;59.52
21096;BME280;10706;49.036;12.112;2024-03-02T12:23:24;96691.88;;;13.95;61.76
21096;BME280;10706;49.036;12.112;2024-03-02T12:25:51;96688.63;;;13.69;60.91
21096;BME280;10706;49.036;12.112;2024-03-02T12:28:17;96688.53;;;13.79;60.51
21096;BME280;10706;49.036;12.112;2024-03-02T12:30:43;96683.63;;;14.15;59.43
21096;BME280;10706;49.036;12.112;2024-03-02T12:33:11;96673.03;;;15.15;56.46
21096;BME280;10706;49.036;12.112;2024-03-02T12:35:37;96668.59;;;16.09;55.14
21096;BME280;10706;49.036;12.112;2024-03-02T12:38:03;96663.25;;;16.65;53.16
21096;BME280;10706;49.036;12.112;2024-03-02T12:40:31;96656.34;;;16.73;52.10
21096;BME280;10706;49.036;12.112;2024-03-02T12:42:57;96653.91;;;17.58;51.14
21096;BME280;10706;49.036;12.112;2024-03-02T12:45:23;96650.47;;;17.66;48.98
21096;BME280;10706;49.036;12.112;2024-03-02T12:47:51;96647.53;;;17.31;50.19
21096;BME280;10706;49.036;12.112;2024-03-02T12:50:18;96647.50;;;16.44;51.84
21096;BME280;10706;49.036;12.112;2024-03-02T12:52:52;96640.03;;;17.28;50.25
21096;BME280;10706;49.036;12.112;2024-03-02T12:55:20;96631.91;;;17.64;49.31
21096;BME280;10706;49.036;12.112;2024-03-02T12:57:45;96638.69;;;17.39;50.19
21096;BME280;10706;49.036;12.112;2024-03-02T13:00:12;96629.44;;;17.32;50.04
21096;BME280;10706;49.036;12.112;2024-03-02T13:02:41;96630.66;;;16.89;51.10
21096;BME280;10706;49.036;12.112;2024-03-02T13:05:08;96630.28;;;15.99;52.55
21096;BME280;10706;49.036;12.112;2024-03-02T13:07:37;96633.13;;;15.74;53.39
21096;BME280;10706;49.036;12.112;2024-03-02T13:10:05;96631.47;;;14.70;55.27
21096;BME280;10706;49.036;12.112;2024-03-02T13:12:31;96628.75;;;14.27;58.19
21096;BME280;10706;49.036;12.112;2024-03-02T13:14:58;96634.44;;;14.44;58.38
21096;BME280;10706;49.036;12.112;2024-03-02T13:17:28;96625.59;;;14.87;56.67
21096;BME280;10706;49.036;12.112;2024-03-02T13:19:57;96623.84;;;14.77;56.52
21096;BME280;10706;49.036;12.112;2024-03-02T13:26:14;96614.63;;;14.83;57.18
21096;BME280;10706;49.036;12.112;2024-03-02T13:46:43;96613.84;;;13.33;60.71
21096;BME280;10706;49.036;12.112;2024-03-02T13:49:11;96617.78;;;13.40;61.59
21096;BME280;10706;49.036;12.112;2024-03-02T13:51:38;96607.53;;;14.73;58.31
21096;BME280;10706;49.036;12.112;2024-03-02T13:54:03;96605.06;;;15.29;55.45